Time;durP1;ratioP1;P1;durP2;ratioP2;P2;SDS_P1;SDS_P2;PMS_P1;PMS_P2;Temp;Humidity;BMP_temperature;BMP_pressure;BME280_temperature;BME280_humidity;BME280_pressure;Samples;Min_cycle;Max_cycle;Signal;HPM_P1;HPM_P2
2023/04/30 00:00:15;;;;;;;6.63;2.00;;;;;;;8.49;86.74;101508.53;5100509;28;20885;-69
2023/04/30 00:02:42;;;;;;;6.00;1.97;;;;;;;8.41;87.27;101514.44;5093434;28;20583;-69
2023/04/30 00:05:10;;;;;;;5.60;1.40;;;;;;;8.35;87.50;101514.38;5099896;28;20463;-69
2023/04/30 00:07:40;;;;;;;9.80;1.60;;;;;;;8.31;88.33;101509.78;5113643;28;20958;-69
2023/04/30 00:10:09;;;;;;;5.27;1.47;;;;;;;8.27;87.88;101509.47;5113905;28;20432;-69
2023/04/30 00:12:35;;;;;;;7.57;2.00;;;;;;;8.13;86.98;101507.53;5113576;28;20930;-69
2023/04/30 00:15:02;;;;;;;10.90;2.00;;;;;;;7.99;86.87;101515.28;5113743;28;20451;-70
2023/04/30 00:17:28;;;;;;;8.80;2.17;;;;;;;7.93;86.10;101514.44;5105443;28;20475;-70
2023/04/30 00:19:55;;;;;;;6.20;1.90;;;;;;;7.91;85.18;101516.56;5093436;28;20432;-69
2023/04/30 00:22:23;;;;;;;10.43;2.03;;;;;;;8.02;84.92;101522.84;5093225;28;20523;-69
2023/04/30 00:24:50;;;;;;;6.80;1.70;;;;;;;8.03;85.05;101519.88;5104697;28;20460;-69
2023/04/30 00:27:17;;;;;;;6.20;2.00;;;;;;;7.94;83.81;101523.34;5113390;28;20795;-69
2023/04/30 00:29:43;;;;;;;9.80;2.30;;;;;;;7.94;83.23;101520.63;5113630;28;20477;-69
2023/04/30 00:32:10;;;;;;;6.70;1.90;;;;;;;8.01;83.35;101518.50;5113568;28;20435;-69
2023/04/30 00:34:37;;;;;;;6.90;1.43;;;;;;;7.98;84.74;101529.84;5113325;28;20443;-69
2023/04/30 00:37:03;;;;;;;6.20;1.37;;;;;;;7.95;84.26;101523.06;5109433;28;20439;-69
2023/04/30 00:39:31;;;;;;;10.00;1.83;;;;;;;7.88;82.63;101527.91;5095332;28;20432;-69
2023/04/30 00:41:58;;;;;;;6.30;1.50;;;;;;;7.89;83.73;101534.09;5107188;28;20453;-69
2023/04/30 00:44:24;;;;;;;10.00;1.63;;;;;;;7.83;83.40;101530.53;5117071;28;20511;-69
2023/04/30 00:46:51;;;;;;;14.10;1.67;;;;;;;7.80;83.34;101537.28;5098248;28;20642;-69
2023/04/30 00:49:18;;;;;;;5.70;1.43;;;;;;;7.78;84.39;101543.97;5098397;28;20512;-69
2023/04/30 00:51:45;;;;;;;7.07;1.33;;;;;;;7.81;84.08;101543.47;5104035;28;20447;-69
2023/04/30 00:54:12;;;;;;;9.20;1.90;;;;;;;7.76;84.81;101552.34;5096873;28;21038;-69
2023/04/30 00:56:40;;;;;;;4.50;1.00;;;;;;;7.73;86.34;101552.03;5096867;28;20507;-69
2023/04/30 00:59:08;;;;;;;6.70;1.27;;;;;;;7.69;86.67;101565.22;5098184;28;20451;-69
2023/04/30 01:01:34;;;;;;;7.77;2.03;;;;;;;7.67;87.03;101569.25;5097049;28;20490;-69
2023/04/30 01:04:01;;;;;;;6.60;1.73;;;;;;;7.69;87.11;101562.53;5096998;28;20524;-69
2023/04/30 01:06:28;;;;;;;7.13;1.43;;;;;;;7.69;87.19;101561.72;5097689;28;20928;-70
2023/04/30 01:08:56;;;;;;;5.80;1.30;;;;;;;7.59;88.20;101565.16;5097483;28;20882;-69
2023/04/30 01:11:31;;;;;;;6.27;1.37;;;;;;;7.52;88.44;101567.22;5097981;28;20505;-69
2023/04/30 01:14:08;;;;;;;7.20;1.57;;;;;;;7.46;88.98;101574.47;5096822;28;20443;-69
2023/04/30 01:16:40;;;;;;;6.73;1.60;;;;;;;7.37;89.23;101575.19;5096792;28;20492;-69
2023/04/30 01:19:12;;;;;;;8.50;1.43;;;;;;;7.31;89.78;101580.53;5096735;28;20459;-69
2023/04/30 01:21:40;;;;;;;4.87;1.37;;;;;;;7.28;89.70;101574.81;5098116;28;20440;-69
2023/04/30 01:24:25;;;;;;;5.17;1.40;;;;;;;7.19;90.11;101579.03;5103329;28;20475;-68
2023/04/30 01:27:06;;;;;;;6.60;1.17;;;;;;;7.10;90.21;101577.88;5116611;28;20467;-69
2023/04/30 01:29:36;;;;;;;6.77;1.83;;;;;;;6.95;90.77;101573.94;5114584;28;20492;-69
2023/04/30 01:32:02;;;;;;;6.07;1.63;;;;;;;6.75;92.58;101582.59;5116615;28;20885;-69
2023/04/30 01:34:29;;;;;;;5.50;1.40;;;;;;;6.65;93.34;101577.09;5114892;28;20546;-68
2023/04/30 01:37:08;;;;;;;12.40;1.33;;;;;;;6.54;93.58;101578.81;5115128;28;20451;-69
2023/04/30 01:39:46;;;;;;;5.50;1.20;;;;;;;6.44;94.32;101583.25;5105513;28;20432;-69
2023/04/30 01:42:20;;;;;;;7.07;1.63;;;;;;;6.44;93.34;101585.97;5096395;28;20429;-69
2023/04/30 01:45:07;;;;;;;5.13;1.40;;;;;;;6.31;94.08;101579.88;5097156;28;20471;-69
2023/04/30 01:47:40;;;;;;;8.93;1.80;;;;;;;6.26;92.24;101584.38;5097002;28;20440;-69
2023/04/30 01:50:20;;;;;;;6.43;1.80;;;;;;;6.22;91.14;101586.72;5106150;28;20444;-69
2023/04/30 01:52:51;;;;;;;6.23;1.30;;;;;;;6.11;90.68;101593.03;5096371;28;20436;-69
2023/04/30 01:55:22;;;;;;;6.20;1.63;;;;;;;6.04;91.68;101587.00;5111791;28;20464;-69
2023/04/30 01:57:56;;;;;;;7.23;1.73;;;;;;;5.95;92.14;101591.97;5115972;28;20432;-69
2023/04/30 02:00:24;;;;;;;10.17;1.87;;;;;;;5.74;91.82;101596.16;5097254;28;20439;-69
2023/04/30 02:02:51;;;;;;;11.97;2.17;;;;;;;5.65;91.77;101603.00;5106276;28;21028;-69
2023/04/30 02:05:17;;;;;;;7.30;1.50;;;;;;;5.70;92.34;101611.16;5095636;28;20491;-69
2023/04/30 02:07:48;;;;;;;15.50;2.10;;;;;;;5.69;93.10;101609.53;5112496;28;20817;-69
2023/04/30 02:10:15;;;;;;;8.00;2.20;;;;;;;5.70;93.55;101618.41;5113176;28;20816;-69
2023/04/30 02:12:42;;;;;;;6.63;1.80;;;;;;;5.65;93.81;101624.50;5095980;28;20433;-69
2023/04/30 02:15:10;;;;;;;5.73;1.20;;;;;;;5.69;93.62;101625.66;5096699;28;20513;-69
2023/04/30 02:17:38;;;;;;;6.37;1.90;;;;;;;5.62;94.64;101616.91;5095630;28;20448;-70
2023/04/30 02:20:06;;;;;;;5.67;1.43;;;;;;;5.56;95.14;101631.34;5110433;28;20443;-71
2023/04/30 02:22:32;;;;;;;6.17;1.50;;;;;;;5.46;95.58;101625.78;5116092;28;20443;-71
2023/04/30 02:24:59;;;;;;;8.53;2.17;;;;;;;5.55;94.62;101625.16;5115531;28;20994;-70
2023/04/30 02:27:26;;;;;;;7.27;1.60;;;;;;;5.50;95.31;101627.75;5115252;28;20456;-70
2023/04/30 02:29:53;;;;;;;6.23;2.30;;;;;;;5.43;95.31;101637.00;5115558;28;20527;-70
2023/04/30 02:32:19;;;;;;;5.97;1.77;;;;;;;5.40;95.50;101638.31;5115862;28;20522;-70
2023/04/30 02:34:47;;;;;;;12.73;1.90;;;;;;;5.33;96.27;101640.31;5098619;28;20455;-70
2023/04/30 02:37:15;;;;;;;7.73;2.30;;;;;;;5.36;95.92;101636.31;5094806;28;20429;-70
2023/04/30 02:39:41;;;;;;;5.50;1.33;;;;;;;5.35;95.17;101634.69;5094975;28;20469;-70
2023/04/30 02:42:08;;;;;;;6.07;1.43;;;;;;;5.29;95.50;101642.66;5095116;28;20456;-71
2023/04/30 02:44:35;;;;;;;5.47;1.67;;;;;;;5.21;96.07;101640.34;5094755;28;21100;-70
2023/04/30 02:47:02;;;;;;;8.00;1.77;;;;;;;5.16;95.96;101640.25;5094684;28;20870;-70
2023/04/30 02:49:29;;;;;;;7.10;1.80;;;;;;;5.09;96.14;101641.44;5094955;28;20441;-70
2023/04/30 02:51:57;;;;;;;8.80;1.47;;;;;;;5.17;95.02;101643.75;5094082;28;20959;-70
2023/04/30 02:54:23;;;;;;;5.90;1.80;;;;;;;5.16;94.74;101642.94;5094420;28;20501;-70
2023/04/30 02:56:50;;;;;;;6.50;1.53;;;;;;;5.11;94.58;101644.72;5094308;28;20472;-70
2023/04/30 02:59:16;;;;;;;6.27;1.60;;;;;;;5.06;93.48;101642.75;5094542;28;20473;-70
2023/04/30 03:01:43;;;;;;;5.90;1.90;;;;;;;4.92;93.06;101641.38;5094353;28;20451;-70
2023/04/30 03:04:10;;;;;;;13.23;2.17;;;;;;;4.72;93.83;101655.19;5094464;28;20502;-70
2023/04/30 03:06:36;;;;;;;8.40;2.10;;;;;;;4.64;94.53;101655.53;5094102;28;21009;-70
2023/04/30 03:09:04;;;;;;;5.57;1.60;;;;;;;4.62;94.19;101658.47;5094496;28;20479;-70
2023/04/30 03:11:31;;;;;;;7.13;2.10;;;;;;;4.52;94.00;101664.41;5094665;28;20512;-69
2023/04/30 03:13:58;;;;;;;5.00;1.37;;;;;;;4.50;93.38;101660.31;5094447;28;20447;-68
2023/04/30 03:16:24;;;;;;;5.53;1.70;;;;;;;4.56;93.06;101670.16;5094327;28;20469;-69
2023/04/30 03:18:51;;;;;;;13.93;1.57;;;;;;;4.46;93.15;101676.06;5094781;28;20519;-68
2023/04/30 03:21:17;;;;;;;8.63;1.83;;;;;;;4.40;93.39;101673.53;5094467;28;20442;-69
2023/04/30 03:23:45;;;;;;;8.90;1.73;;;;;;;4.39;94.68;101672.69;5093807;28;21082;-69
2023/04/30 03:26:13;;;;;;;6.77;1.60;;;;;;;4.44;95.30;101675.50;5093805;28;20478;-69
2023/04/30 03:28:39;;;;;;;4.90;1.20;;;;;;;4.43;96.00;101675.75;5093922;28;20449;-69
2023/04/30 03:31:06;;;;;;;6.87;1.93;;;;;;;4.49;95.49;101677.47;5094195;28;20433;-69
2023/04/30 03:33:33;;;;;;;5.60;1.77;;;;;;;4.37;96.61;101676.66;5094218;28;20539;-69
2023/04/30 03:35:59;;;;;;;5.57;1.37;;;;;;;4.35;97.04;101676.91;5093764;28;20533;-69
2023/04/30 03:38:26;;;;;;;5.77;1.40;;;;;;;4.25;97.75;101680.16;5094132;28;20451;-71
2023/04/30 03:40:53;;;;;;;8.57;2.33;;;;;;;4.24;98.65;101680.38;5094091;28;20436;-71
2023/04/30 03:43:21;;;;;;;6.40;1.90;;;;;;;4.25;98.36;101682.84;5094098;28;20443;-71
2023/04/30 03:45:48;;;;;;;6.70;1.60;;;;;;;4.26;97.85;101684.47;5093797;28;20571;-71
2023/04/30 03:48:15;;;;;;;6.90;1.70;;;;;;;4.27;97.95;101682.59;5093677;28;20493;-71
2023/04/30 03:50:41;;;;;;;6.37;2.00;;;;;;;4.21;98.57;101689.72;5093971;28;20467;-71
2023/04/30 03:53:08;;;;;;;9.00;2.13;;;;;;;4.09;100.00;101694.22;5093903;28;20479;-71
2023/04/30 03:55:35;;;;;;;6.37;2.30;;;;;;;4.12;100.00;101691.09;5093592;28;20456;-71
2023/04/30 03:58:01;;;;;;;6.93;1.90;;;;;;;4.20;100.00;101696.09;5093068;28;20437;-70
2023/04/30 04:00:29;;;;;;;11.70;2.90;;;;;;;4.20;100.00;101696.09;5101194;28;20440;-71
2023/04/30 04:02:58;;;;;;;8.33;2.67;;;;;;;4.36;100.00;101694.63;5114130;28;20526;-71
2023/04/30 04:05:25;;;;;;;6.27;2.77;;;;;;;4.41;99.26;101705.47;5102313;28;20516;-71
2023/04/30 04:07:51;;;;;;;17.30;3.70;;;;;;;4.54;98.18;101707.91;5093707;28;20460;-71
2023/04/30 04:10:18;;;;;;;8.97;2.90;;;;;;;4.48;97.97;101710.72;5099978;28;20522;-70
2023/04/30 04:12:45;;;;;;;7.23;2.47;;;;;;;4.48;97.47;101706.19;5111894;28;20537;-68
2023/04/30 04:15:12;;;;;;;7.40;2.87;;;;;;;4.45;98.88;101711.19;5105369;28;21002;-70
2023/04/30 04:17:40;;;;;;;12.83;2.70;;;;;;;4.54;98.30;101715.16;5093089;28;20453;-69
2023/04/30 04:20:08;;;;;;;9.00;2.30;;;;;;;4.51;97.50;101720.97;5101888;28;20450;-69
2023/04/30 04:22:34;;;;;;;7.43;2.37;;;;;;;4.57;96.81;101720.06;5113805;28;20443;-69
2023/04/30 04:25:07;;;;;;;8.63;2.40;;;;;;;4.50;96.74;101724.72;5114299;28;20860;-69
2023/04/30 04:27:34;;;;;;;6.90;2.07;;;;;;;4.49;96.20;101731.13;5113771;28;20467;-69
2023/04/30 04:30:02;;;;;;;7.20;2.00;;;;;;;4.60;97.51;101732.19;5109907;28;20446;-69
2023/04/30 04:32:29;;;;;;;6.40;2.13;;;;;;;4.63;96.69;101735.22;5092968;28;20947;-69
2023/04/30 04:34:57;;;;;;;9.87;2.80;;;;;;;4.79;97.66;101737.22;5094017;28;20921;-69
2023/04/30 04:37:24;;;;;;;7.57;2.57;;;;;;;4.93;98.08;101739.66;5093275;28;20479;-69
2023/04/30 04:39:51;;;;;;;7.10;2.07;;;;;;;5.03;98.25;101748.75;5097260;28;20433;-69
2023/04/30 04:42:18;;;;;;;7.33;2.70;;;;;;;5.10;98.12;101745.13;5100773;28;20444;-69
2023/04/30 04:44:45;;;;;;;5.60;1.83;;;;;;;5.13;98.19;101742.78;5111361;28;20510;-69
2023/04/30 04:47:12;;;;;;;6.90;2.43;;;;;;;5.20;97.99;101742.66;5112867;28;20950;-69
2023/04/30 04:49:39;;;;;;;8.83;2.37;;;;;;;5.25;98.60;101756.19;5112880;28;20822;-69
2023/04/30 04:52:07;;;;;;;6.93;2.80;;;;;;;5.27;99.44;101754.91;5096793;28;21024;-69
2023/04/30 04:54:34;;;;;;;19.47;3.27;;;;;;;5.42;98.70;101758.97;5108181;28;20471;-69
2023/04/30 04:57:01;;;;;;;6.10;2.33;;;;;;;5.42;98.08;101762.47;5111256;28;21014;-69
2023/04/30 04:59:28;;;;;;;9.50;2.47;;;;;;;5.53;98.25;101766.16;5112763;28;20542;-69
2023/04/30 05:01:55;;;;;;;6.70;2.23;;;;;;;5.59;96.60;101762.53;5093302;28;20441;-69
2023/04/30 05:04:21;;;;;;;9.00;2.03;;;;;;;5.63;96.42;101766.38;5092886;28;20480;-69
2023/04/30 05:06:48;;;;;;;5.67;1.80;;;;;;;5.57;97.10;101772.69;5108464;28;20463;-69
2023/04/30 05:09:16;;;;;;;7.70;2.30;;;;;;;5.68;97.33;101779.94;5113064;28;20818;-70
2023/04/30 05:11:45;;;;;;;8.07;1.90;;;;;;;5.73;96.49;101782.72;5112880;28;20452;-70
2023/04/30 05:14:11;;;;;;;6.20;1.80;;;;;;;5.75;96.45;101779.78;5112906;28;20452;-70
2023/04/30 05:16:38;;;;;;;8.60;2.20;;;;;;;5.89;95.38;101786.53;5111026;28;20458;-70
2023/04/30 05:19:04;;;;;;;8.20;2.43;;;;;;;5.82;94.69;101786.66;5112322;28;20450;-70
2023/04/30 05:21:31;;;;;;;10.37;2.57;;;;;;;5.93;94.41;101792.25;5113189;28;20812;-70
2023/04/30 05:23:58;;;;;;;8.30;1.77;;;;;;;5.95;93.62;101790.97;5112732;28;20443;-70
2023/04/30 05:26:26;;;;;;;10.13;3.03;;;;;;;6.00;93.59;101788.38;5112640;28;20558;-70
2023/04/30 05:28:53;;;;;;;6.70;2.17;;;;;;;6.11;93.05;101794.75;5111657;28;20479;-69
2023/04/30 05:31:19;;;;;;;6.97;1.60;;;;;;;6.12;92.29;101795.56;5113324;28;20771;-70
2023/04/30 05:33:46;;;;;;;11.77;2.53;;;;;;;6.17;93.06;101804.53;5096099;28;20444;-70
2023/04/30 05:36:14;;;;;;;6.97;2.23;;;;;;;6.28;91.83;101809.03;5096166;28;20464;-70
2023/04/30 05:38:40;;;;;;;7.20;2.33;;;;;;;6.33;91.76;101808.34;5097420;28;20532;-69
2023/04/30 05:41:07;;;;;;;6.50;2.20;;;;;;;6.37;91.38;101809.47;5097501;28;20890;-69
2023/04/30 05:43:35;;;;;;;7.37;2.20;;;;;;;6.42;92.00;101814.97;5095981;28;20448;-69
2023/04/30 05:46:02;;;;;;;7.10;2.10;;;;;;;6.49;91.15;101807.53;5096080;28;20865;-70
2023/04/30 05:48:28;;;;;;;10.47;2.40;;;;;;;6.62;90.41;101811.78;5097040;28;20951;-69
2023/04/30 05:50:55;;;;;;;6.23;1.97;;;;;;;6.43;89.31;101813.88;5096158;28;20455;-69
2023/04/30 05:53:22;;;;;;;9.70;2.00;;;;;;;6.40;89.89;101818.94;5098502;28;20476;-69
2023/04/30 05:55:49;;;;;;;14.80;1.93;;;;;;;6.55;89.03;101819.19;5116503;27;20451;-69
2023/04/30 05:58:16;;;;;;;6.90;2.13;;;;;;;6.66;89.39;101828.25;5114853;28;20447;-69
2023/04/30 06:00:44;;;;;;;5.30;1.63;;;;;;;6.75;89.78;101824.91;5104383;28;20535;-69
2023/04/30 06:03:11;;;;;;;6.47;2.00;;;;;;;6.83;88.13;101823.69;5116385;28;20565;-68
2023/04/30 06:05:40;;;;;;;6.90;1.50;;;;;;;6.76;87.67;101823.84;5103915;27;20562;-69
2023/04/30 06:08:06;;;;;;;8.63;2.00;;;;;;;6.88;87.95;101831.84;5095909;28;20444;-69
2023/04/30 06:10:33;;;;;;;6.20;1.50;;;;;;;6.90;86.35;101831.59;5095550;28;20527;-69
2023/04/30 06:13:00;;;;;;;8.13;1.73;;;;;;;6.94;87.66;101838.94;5095755;28;20557;-69
2023/04/30 06:15:26;;;;;;;7.70;2.10;;;;;;;7.06;86.69;101836.16;5095653;28;20492;-69
2023/04/30 06:17:54;;;;;;;8.23;2.37;;;;;;;7.21;86.96;101836.38;5108433;28;20519;-69
2023/04/30 06:20:21;;;;;;;7.80;2.00;;;;;;;7.32;85.78;101837.38;5116362;28;20511;-68
2023/04/30 06:22:47;;;;;;;7.27;1.87;;;;;;;7.37;84.92;101845.53;5116009;28;20457;-69
2023/04/30 06:25:14;;;;;;;6.87;1.90;;;;;;;7.31;85.36;101844.63;5115825;28;20498;-69
2023/04/30 06:27:41;;;;;;;12.57;2.10;;;;;;;7.45;83.47;101847.78;5115583;28;20927;-72
2023/04/30 06:30:09;;;;;;;5.63;1.80;;;;;;;7.46;83.97;101854.81;5115867;28;20448;-69
2023/04/30 06:32:35;;;;;;;6.63;1.97;;;;;;;7.58;82.51;101852.00;5102849;28;20531;-68
2023/04/30 06:35:04;;;;;;;7.30;2.13;;;;;;;7.63;81.69;101854.78;5103117;28;20460;-68
2023/04/30 06:37:34;;;;;;;5.30;1.27;;;;;;;7.61;82.14;101853.38;5095308;28;20811;-69
2023/04/30 06:40:01;;;;;;;7.33;1.87;;;;;;;7.67;82.51;101857.78;5096075;28;20638;-71
2023/04/30 06:42:33;;;;;;;8.70;1.37;;;;;;;7.78;81.74;101852.25;5096305;28;20467;-71
2023/04/30 06:45:00;;;;;;;7.47;2.23;;;;;;;7.92;80.61;101860.78;5094987;28;20484;-70
2023/04/30 06:47:26;;;;;;;8.10;1.67;;;;;;;7.90;79.05;101856.72;5095176;28;20444;-71
2023/04/30 06:49:53;;;;;;;6.40;1.37;;;;;;;7.89;78.60;101860.50;5095015;28;20472;-69
2023/04/30 06:52:21;;;;;;;9.50;2.77;;;;;;;7.99;77.02;101858.72;5101132;28;20535;-69
2023/04/30 06:54:47;;;;;;;6.67;1.53;;;;;;;8.04;75.88;101857.97;5114950;28;20439;-69
2023/04/30 06:57:14;;;;;;;10.33;2.20;;;;;;;8.06;76.28;101858.53;5115360;28;20436;-69
2023/04/30 06:59:41;;;;;;;5.50;1.30;;;;;;;8.16;76.27;101853.25;5112932;28;21023;-69
2023/04/30 07:02:07;;;;;;;8.37;2.27;;;;;;;8.32;76.13;101852.34;5103718;28;20519;-68
2023/04/30 07:04:34;;;;;;;6.90;1.70;;;;;;;8.41;74.42;101852.75;5116120;27;20965;-69
2023/04/30 07:07:01;;;;;;;14.50;2.07;;;;;;;8.46;72.92;101849.28;5114733;28;20435;-68
2023/04/30 07:09:29;;;;;;;6.43;1.70;;;;;;;8.47;75.29;101859.00;5118466;27;20564;-69
2023/04/30 07:11:58;;;;;;;5.53;1.50;;;;;;;8.51;74.52;101860.13;5135195;27;20813;-69
2023/04/30 07:14:24;;;;;;;7.30;2.40;;;;;;;8.61;73.06;101860.19;5120726;27;20436;-69
2023/04/30 07:16:51;;;;;;;6.40;2.07;;;;;;;8.71;72.89;101863.00;5114833;28;20487;-69
2023/04/30 07:19:18;;;;;;;11.00;2.57;;;;;;;8.66;70.99;101868.34;5114842;28;20805;-69
2023/04/30 07:21:45;;;;;;;6.93;1.50;;;;;;;8.68;71.93;101860.00;5114879;27;20439;-69
2023/04/30 07:24:11;;;;;;;11.30;2.00;;;;;;;8.86;71.84;101856.91;5114528;28;21018;-69
2023/04/30 07:26:41;;;;;;;10.00;1.70;;;;;;;8.83;70.33;101857.41;5114639;28;20506;-70
2023/04/30 07:29:07;;;;;;;7.90;1.70;;;;;;;8.79;71.04;101857.13;5114714;28;20443;-69
2023/04/30 07:31:34;;;;;;;6.10;1.93;;;;;;;8.89;70.19;101860.97;5115685;27;20517;-69
2023/04/30 07:34:00;;;;;;;4.93;1.23;;;;;;;8.86;69.35;101861.50;5134787;27;20829;-70
2023/04/30 07:36:27;;;;;;;7.60;1.87;;;;;;;9.00;70.86;101862.69;5123679;27;20506;-69
2023/04/30 07:38:54;;;;;;;7.50;1.80;;;;;;;9.03;71.15;101859.44;5115542;27;20814;-69
2023/04/30 07:41:20;;;;;;;10.50;2.37;;;;;;;9.12;70.35;101859.78;5134757;27;20442;-69
2023/04/30 07:43:48;;;;;;;9.10;2.00;;;;;;;9.07;68.91;101858.72;5123600;27;20527;-69
2023/04/30 07:46:15;;;;;;;6.07;1.70;;;;;;;9.03;71.61;101868.41;5115199;28;20574;-69
2023/04/30 07:48:41;;;;;;;5.77;1.40;;;;;;;9.13;65.36;101870.34;5111884;27;20463;-69
2023/04/30 07:51:08;;;;;;;7.03;1.77;;;;;;;9.10;62.75;101878.97;5100680;28;20436;-69
2023/04/30 07:53:34;;;;;;;9.03;1.77;;;;;;;9.11;62.91;101877.91;5093517;28;20531;-71
2023/04/30 07:56:01;;;;;;;10.43;1.70;;;;;;;9.16;63.04;101875.22;5113381;28;20527;-71
2023/04/30 07:58:28;;;;;;;5.57;1.30;;;;;;;9.23;63.84;101877.72;5113939;28;20439;-71
2023/04/30 08:00:56;;;;;;;5.83;1.50;;;;;;;9.27;61.72;101881.53;5113754;28;20439;-70
2023/04/30 08:03:22;;;;;;;5.30;1.53;;;;;;;9.40;57.60;101882.97;5113793;28;20530;-70
2023/04/30 08:05:49;;;;;;;5.57;1.10;;;;;;;9.38;55.99;101885.13;5113577;28;20479;-71
2023/04/30 08:08:15;;;;;;;8.27;1.87;;;;;;;9.35;56.84;101891.88;5127556;27;20438;-71
2023/04/30 08:10:42;;;;;;;6.87;1.40;;;;;;;9.31;57.50;101890.75;5134162;27;20438;-72
2023/04/30 08:13:09;;;;;;;5.23;1.37;;;;;;;9.41;58.88;101879.19;5134450;27;20438;-70
2023/04/30 08:15:36;;;;;;;6.03;1.40;;;;;;;9.35;58.78;101886.47;5134387;27;20462;-71
2023/04/30 08:18:04;;;;;;;4.70;1.00;;;;;;;9.23;55.00;101889.34;5103251;27;20453;-71
2023/04/30 08:20:32;;;;;;;8.70;1.30;;;;;;;9.21;57.54;101891.50;5118143;27;20492;-69
2023/04/30 08:22:58;;;;;;;7.13;1.50;;;;;;;9.30;57.99;101898.06;5125081;27;20871;-71
2023/04/30 08:25:25;;;;;;;5.60;1.30;;;;;;;9.46;54.24;101898.16;5113315;28;20582;-69
2023/04/30 08:27:52;;;;;;;6.03;1.40;;;;;;;9.61;54.65;101887.44;5113741;28;20449;-69
2023/04/30 08:30:19;;;;;;;7.10;1.63;;;;;;;9.59;54.44;101903.09;5118760;27;20444;-70
2023/04/30 08:32:45;;;;;;;9.23;1.80;;;;;;;9.55;54.47;101897.38;5113707;28;20520;-69
2023/04/30 08:35:13;;;;;;;5.67;1.67;;;;;;;9.45;53.98;101893.81;5113047;28;21024;-69
2023/04/30 08:37:40;;;;;;;6.20;1.77;;;;;;;9.49;53.99;101894.94;5108694;28;20437;-68
2023/04/30 08:40:10;;;;;;;7.23;1.67;;;;;;;9.68;55.19;101895.31;5093260;28;20440;-69
2023/04/30 08:42:38;;;;;;;7.93;1.93;;;;;;;9.76;54.56;101898.31;5094296;28;20428;-69
2023/04/30 08:45:06;;;;;;;6.23;1.13;;;;;;;9.79;54.94;101903.22;5093034;28;20537;-69
2023/04/30 08:47:33;;;;;;;6.20;1.67;;;;;;;9.83;53.02;101898.91;5093119;28;20444;-69
2023/04/30 08:49:59;;;;;;;7.47;1.80;;;;;;;9.84;54.00;101905.13;5093348;28;20817;-69
2023/04/30 08:52:30;;;;;;;9.73;1.77;;;;;;;9.84;54.54;101895.13;5093369;28;20441;-69
2023/04/30 08:54:57;;;;;;;6.53;1.43;;;;;;;9.87;54.82;101893.75;5112545;28;20499;-69
2023/04/30 08:57:25;;;;;;;11.20;1.63;;;;;;;9.88;52.36;101900.00;5112276;28;20438;-69
2023/04/30 08:59:51;;;;;;;8.83;1.33;;;;;;;10.02;50.26;101903.88;5110689;28;20447;-69
2023/04/30 09:02:18;;;;;;;7.07;1.40;;;;;;;10.24;47.48;101901.81;5114328;28;20934;-69
2023/04/30 09:04:46;;;;;;;5.60;0.90;;;;;;;10.29;46.98;101901.00;5114101;28;20513;-69
2023/04/30 09:07:13;;;;;;;4.87;1.10;;;;;;;10.16;47.87;101906.88;5119279;27;20585;-69
2023/04/30 09:09:41;;;;;;;6.80;1.10;;;;;;;10.21;46.93;101905.00;5120806;27;20443;-69
2023/04/30 09:12:13;;;;;;;5.87;1.10;;;;;;;10.26;46.88;101915.88;5108056;28;20535;-69
2023/04/30 09:14:40;;;;;;;5.17;1.37;;;;;;;10.31;46.60;101912.38;5114728;28;20443;-69
2023/04/30 09:17:07;;;;;;;7.23;1.20;;;;;;;10.38;47.60;101920.25;5109706;27;20528;-69
2023/04/30 09:19:35;;;;;;;6.33;1.20;;;;;;;10.49;49.24;101921.91;5126076;27;20488;-70
2023/04/30 09:22:19;;;;;;;5.80;1.17;;;;;;;10.50;47.45;101904.59;5124114;27;20867;-69
2023/04/30 09:24:48;;;;;;;5.30;1.37;;;;;;;10.52;47.30;101902.41;5135879;27;20430;-70
2023/04/30 09:27:19;;;;;;;4.80;1.00;;;;;;;10.65;48.24;101901.88;5116614;27;20483;-68
2023/04/30 09:29:46;;;;;;;7.83;1.87;;;;;;;10.74;47.89;101896.75;5106024;28;20526;-68
2023/04/30 09:32:13;;;;;;;5.40;1.50;;;;;;;10.80;47.67;101904.63;5106489;28;20447;-69
2023/04/30 09:34:42;;;;;;;6.77;1.43;;;;;;;10.74;47.61;101911.13;5116513;28;21021;-69
2023/04/30 09:37:08;;;;;;;5.73;1.63;;;;;;;10.64;47.17;101902.97;5099269;28;20467;-69
2023/04/30 09:39:48;;;;;;;4.70;1.17;;;;;;;10.72;48.61;101905.16;5096598;28;20436;-69
2023/04/30 09:42:15;;;;;;;4.70;1.00;;;;;;;10.94;47.03;101907.63;5096291;28;20899;-68
2023/04/30 09:44:42;;;;;;;6.70;1.33;;;;;;;11.06;46.58;101907.34;5096512;28;20491;-69
2023/04/30 09:47:12;;;;;;;5.67;1.43;;;;;;;10.99;47.72;101901.38;5124774;27;20484;-69
2023/04/30 09:49:42;;;;;;;8.83;1.73;;;;;;;10.94;49.44;101912.22;5117146;27;20446;-69
2023/04/30 09:52:10;;;;;;;7.00;1.60;;;;;;;11.00;47.99;101898.41;5116893;28;20435;-69
2023/04/30 09:54:38;;;;;;;9.10;2.10;;;;;;;11.17;47.88;101908.97;5116796;27;20496;-69
2023/04/30 09:57:10;;;;;;;9.20;1.60;;;;;;;11.25;47.11;101903.00;5116866;28;20470;-69
2023/04/30 09:59:38;;;;;;;5.00;1.13;;;;;;;11.28;47.26;101897.00;5116514;27;20478;-69
2023/04/30 10:02:06;;;;;;;5.80;1.20;;;;;;;11.28;44.79;101897.00;5116486;28;20443;-69
2023/04/30 10:04:34;;;;;;;5.83;1.90;;;;;;;11.22;48.01;101892.69;5116610;28;20482;-69
2023/04/30 10:07:04;;;;;;;5.73;1.50;;;;;;;11.30;47.68;101894.84;5116183;28;20481;-69
2023/04/30 10:09:39;;;;;;;9.37;1.57;;;;;;;11.36;47.49;101899.16;5105515;28;20502;-68
2023/04/30 10:12:12;;;;;;;6.07;1.53;;;;;;;11.41;47.53;101887.50;5114667;28;20443;-68
2023/04/30 10:14:39;;;;;;;5.27;1.30;;;;;;;11.60;47.60;101895.88;5115541;28;20474;-67
2023/04/30 10:17:13;;;;;;;6.70;1.50;;;;;;;11.51;47.92;101897.50;5116101;28;20440;-69
2023/04/30 10:19:45;;;;;;;6.77;1.17;;;;;;;11.51;47.23;101881.22;5115930;28;20518;-68
2023/04/30 10:22:13;;;;;;;5.67;1.70;;;;;;;11.57;48.26;101880.16;5116248;28;20447;-69
2023/04/30 10:24:40;;;;;;;5.20;1.47;;;;;;;11.69;49.32;101886.09;5116095;28;20453;-68
2023/04/30 10:27:08;;;;;;;6.17;1.53;;;;;;;11.77;48.58;101877.34;5104284;28;21003;-69
2023/04/30 10:29:35;;;;;;;5.50;1.17;;;;;;;11.62;48.46;101882.84;5114074;28;20534;-69
2023/04/30 10:32:03;;;;;;;6.70;1.47;;;;;;;11.70;48.72;101879.56;5109960;27;20990;-69
2023/04/30 10:34:41;;;;;;;7.40;1.53;;;;;;;11.89;48.96;101884.41;5094702;28;20452;-68
2023/04/30 10:37:19;;;;;;;7.13;1.50;;;;;;;12.01;47.99;101874.06;5095124;28;20530;-69
2023/04/30 10:39:46;;;;;;;5.40;1.60;;;;;;;12.05;47.85;101875.13;5094836;28;20436;-69
2023/04/30 10:42:14;;;;;;;8.03;1.70;;;;;;;12.07;47.08;101876.44;5094394;28;20939;-69
2023/04/30 10:44:41;;;;;;;7.07;1.63;;;;;;;12.21;47.87;101867.69;5103720;28;20590;-69
2023/04/30 10:47:08;;;;;;;7.43;1.67;;;;;;;12.39;47.75;101861.59;5114485;28;20515;-69
2023/04/30 10:49:35;;;;;;;5.30;1.43;;;;;;;12.53;47.54;101849.03;5122661;27;20490;-69
2023/04/30 10:52:03;;;;;;;6.57;1.73;;;;;;;12.60;46.74;101856.84;5122589;27;20463;-69
2023/04/30 10:54:33;;;;;;;4.73;1.23;;;;;;;12.70;47.13;101862.19;5110905;28;20432;-70
2023/04/30 10:57:11;;;;;;;5.77;1.60;;;;;;;12.77;47.51;101862.69;5105330;28;20432;-69
2023/04/30 10:59:43;;;;;;;7.53;1.93;;;;;;;12.80;48.00;101862.13;5133710;27;20439;-69
2023/04/30 11:02:11;;;;;;;6.50;1.67;;;;;;;13.00;47.48;101860.31;5093926;28;20428;-70
2023/04/30 11:05:10;;;;;;;7.40;1.70;;;;;;;13.00;46.73;101855.69;5094008;28;20440;-69
2023/04/30 11:07:36;;;;;;;14.03;2.33;;;;;;;13.29;46.78;101857.66;5093616;28;20465;-70
2023/04/30 11:10:07;;;;;;;6.80;1.73;;;;;;;13.55;46.01;101864.44;5093837;28;20498;-69
2023/04/30 11:12:34;;;;;;;7.57;1.73;;;;;;;13.78;46.63;101854.63;5106032;28;20534;-69
2023/04/30 11:15:13;;;;;;;6.50;2.00;;;;;;;14.35;45.95;101863.69;5097269;28;20468;-70
2023/04/30 11:17:40;;;;;;;5.57;1.40;;;;;;;15.03;43.32;101850.63;5101064;28;20486;-69
2023/04/30 11:20:12;;;;;;;5.53;1.53;;;;;;;15.81;41.22;101855.16;5093531;28;20436;-69
2023/04/30 11:22:39;;;;;;;13.40;2.80;;;;;;;16.51;40.19;101851.16;5093833;28;20420;-69
2023/04/30 11:25:08;;;;;;;5.87;1.60;;;;;;;16.93;39.48;101861.94;5093295;28;20551;-69
2023/04/30 11:27:36;;;;;;;4.80;1.33;;;;;;;17.08;39.59;101859.59;5101651;28;20472;-69
2023/04/30 11:30:10;;;;;;;7.37;1.60;;;;;;;17.56;38.00;101863.53;5098053;28;20921;-69
2023/04/30 11:32:38;;;;;;;8.73;1.50;;;;;;;18.05;37.10;101861.59;5093660;28;20459;-70
2023/04/30 11:35:06;;;;;;;7.43;1.60;;;;;;;18.23;37.12;101857.72;5123807;27;20482;-70